Аэропорт: Домодедово. Москва

ICAO: UUDD

METAR:
2021-07-28 14:00:00
UUDD 281400Z 16005MPS 7000 -SHRA SCT033CB 18/16 Q1013 R88/290042 NOSIG
METAR:
2021-07-28 10:57:00
TAF UUDD 281057Z 2812/2918 13003MPS 8000 -RA FEW010 OVC020 TX25/2913Z TN16/2901Z TEMPO 2812/2904 2300 -SHRA FEW005 BKN020CB PROB40 TEMPO 2812/2904 -TSRA BKN020CB BECMG 2904/2906 26006MPS